| time (UTC) | temp C | wind direction | speed KPH | gust KPH | rain 1hr cm | rain 24hr cm | rain mn cm | humidity % | barometer mb |
| 20260502214625 | 12 | 226 | 4.8 | 9.7 | 0.00 | 0.00 | 0.00 | 63 | 1008.8 |
| 20260502214339 | 12 | 205 | 6.4 | 11.3 | 0.00 | 0.00 | 0.00 | 63 | 1008.8 |
| 20260502213613 | 12 | 209 | 6.4 | 11.3 | 0.00 | 0.00 | 0.00 | 63 | 1008.8 |
| 20260502213107 | 12 | 218 | 6.4 | 11.3 | 0.00 | 0.00 | 0.00 | 62 | 1008.8 |
| 20260502212601 | 12 | 217 | 6.4 | 11.3 | 0.00 | 0.00 | 0.00 | 62 | 1008.8 |
| 20260502212055 | 12 | 263 | 4.8 | 11.3 | 0.00 | 0.00 | 0.00 | 62 | 1008.8 |
| 20260502211549 | 12 | 223 | 4.8 | 8.0 | 0.00 | 0.00 | 0.00 | 63 | 1008.9 |
| 20260502211043 | 12 | 237 | 4.8 | 8.0 | 0.00 | 0.00 | 0.00 | 62 | 1008.9 |
| 20260502210537 | 12 | 240 | 4.8 | 12.9 | 0.00 | 0.00 | 0.00 | 63 | 1008.7 |
| 20260502210031 | 12 | 241 | 4.8 | 12.9 | 0.00 | 0.00 | 0.00 | 63 | 1008.7 |
| 20260502205525 | 12 | 233 | 8.0 | 12.9 | 0.00 | 0.00 | 0.00 | 62 | 1008.8 |
| 20260502205019 | 12 | 209 | 8.0 | 12.9 | 0.00 | 0.00 | 0.00 | 62 | 1008.9 |
| 20260502204513 | 12 | 221 | 6.4 | 11.3 | 0.00 | 0.00 | 0.00 | 63 | 1009.0 |
| 20260502204007 | 12 | 208 | 4.8 | 11.3 | 0.00 | 0.00 | 0.00 | 64 | 1008.9 |
| 20260502203502 | 12 | 198 | 4.8 | 11.3 | 0.00 | 0.00 | 0.00 | 65 | 1008.8 |
| 20260502203002 | 12 | 234 | 6.4 | 12.9 | 0.00 | 0.00 | 0.00 | 65 | 1008.9 |
| 20260502202502 | 12 | 211 | 6.4 | 12.9 | 0.00 | 0.00 | 0.00 | 65 | 1009.0 |
| 20260502202225 | 12 | 191 | 6.4 | 9.7 | 0.00 | 0.00 | 0.00 | 66 | 1009.0 |
| 20260502201729 | 12 | 181 | 6.4 | 9.7 | 0.00 | 0.00 | 0.00 | 65 | 1009.1 |
| 20260502201002 | 11 | 184 | 6.4 | 14.5 | 0.00 | 0.00 | 0.00 | 66 | 1009.2 |
| 20260502200501 | 11 | 184 | 9.7 | 16.1 | 0.00 | 0.00 | 0.00 | 65 | 1009.2 |
| 20260502200002 | 11 | 195 | 9.7 | 16.1 | 0.00 | 0.00 | 0.00 | 65 | 1009.3 |
| 20260502195503 | 12 | 210 | 8.0 | 11.3 | 0.00 | 0.00 | 0.00 | 66 | 1009.3 |
| 20260502195002 | 11 | 259 | 6.4 | 11.3 | 0.00 | 0.00 | 0.00 | 66 | 1009.4 |
| 20260502194502 | 11 | 215 | 6.4 | 12.9 | 0.00 | 0.00 | 0.00 | 66 | 1009.4 |
| 20260502194221 | 11 | 215 | 6.4 | 12.9 | 0.00 | 0.00 | 0.00 | 66 | 1009.4 |
| 20260502193502 | 11 | 215 | 8.0 | 14.5 | 0.00 | 0.00 | 0.00 | 66 | 1009.4 |
| 20260502193002 | 11 | 209 | 8.0 | 16.1 | 0.00 | 0.00 | 0.00 | 66 | 1009.5 |
| 20260502192503 | 11 | 200 | 8.0 | 16.1 | 0.00 | 0.00 | 0.00 | 66 | 1009.5 |
| 20260502192000 | 11 | 205 | 6.4 | 12.9 | 0.00 | 0.00 | 0.00 | 65 | 1009.6 |
| 20260502191501 | 11 | 187 | 6.4 | 12.9 | 0.00 | 0.00 | 0.00 | 65 | 1009.7 |
| 20260502190955 | 11 | 196 | 6.4 | 9.7 | 0.00 | 0.00 | 0.00 | 65 | 1009.7 |
| 20260502190449 | 11 | 215 | 6.4 | 11.3 | 0.00 | 0.00 | 0.00 | 65 | 1009.7 |
| 20260502185942 | 11 | 176 | 6.4 | 11.3 | 0.00 | 0.00 | 0.00 | 65 | 1009.8 |
| 20260502185436 | 11 | 196 | 6.4 | 11.3 | 0.00 | 0.00 | 0.00 | 65 | 1009.8 |
| 20260502185419 | 11 | 196 | 6.4 | 11.3 | 0.00 | 0.00 | 0.00 | 65 | 1010.0 |
| 20260502184425 | 11 | 178 | 6.4 | 11.3 | 0.00 | 0.00 | 0.00 | 65 | 1010.0 |
| 20260502183416 | 11 | 217 | 6.4 | 12.9 | 0.00 | 0.00 | 0.00 | 65 | 1010.0 |
| 20260502183133 | 11 | 218 | 6.4 | 12.9 | 0.00 | 0.00 | 0.00 | 65 | 1010.0 |
| 20260502182416 | 11 | 219 | 8.0 | 16.1 | 0.00 | 0.00 | 0.00 | 66 | 1010.0 |
| 20260502181916 | 11 | 207 | 8.0 | 16.1 | 0.00 | 0.00 | 0.00 | 65 | 1009.9 |
| 20260502181634 | 11 | 200 | 6.4 | 12.9 | 0.00 | 0.00 | 0.00 | 65 | 1009.8 |
| 20260502180916 | 11 | 205 | 6.4 | 14.5 | 0.00 | 0.00 | 0.00 | 65 | 1009.9 |
| 20260502180415 | 11 | 224 | 6.4 | 14.5 | 0.00 | 0.00 | 0.00 | 65 | 1010.0 |
| 20260502170416 | 11 | 246 | 4.8 | 11.3 | 0.00 | 0.00 | 0.00 | 64 | 1010.4 |
| 20260502163916 | 11 | 254 | 3.2 | 9.7 | 0.00 | 0.00 | 0.00 | 65 | 1010.3 |
| 20260502163417 | 11 | 263 | 4.8 | 11.3 | 0.00 | 0.00 | 0.00 | 65 | 1010.3 |
| 20260502162915 | 11 | 240 | 4.8 | 11.3 | 0.00 | 0.00 | 0.00 | 65 | 1010.4 |
| 20260502162416 | 11 | 234 | 6.4 | 14.5 | 0.00 | 0.00 | 0.00 | 65 | 1010.4 |
| 20260502161914 | 11 | 299 | 6.4 | 14.5 | 0.00 | 0.00 | 0.00 | 65 | 1010.4 |
| 20260502161415 | 11 | 273 | 6.4 | 12.9 | 0.00 | 0.00 | 0.00 | 65 | 1010.4 |
| 20260502160908 | 11 | 304 | 6.4 | 12.9 | 0.00 | 0.00 | 0.00 | 65 | 1010.3 |
| 20260502160628 | 11 | 270 | 8.0 | 16.1 | 0.00 | 0.00 | 0.00 | 65 | 1010.5 |
| 20260502151902 | 11 | 242 | 9.7 | 16.1 | 0.00 | 0.00 | 0.00 | 64 | 1010.8 |
| 20260502151622 | 11 | 226 | 8.0 | 16.1 | 0.00 | 0.00 | 0.00 | 64 | 1010.8 |
| 20260502150901 | 11 | 237 | 9.7 | 19.3 | 0.00 | 0.00 | 0.00 | 64 | 1010.7 |
| 20260502150623 | 11 | 195 | 11.3 | 24.1 | 0.00 | 0.00 | 0.00 | 63 | 1010.8 |
| 20260502150120 | 11 | 245 | 11.3 | 24.1 | 0.00 | 0.00 | 0.00 | 64 | 1010.8 |
| 20260502130705 | 12 | 299 | 3.2 | 6.4 | 0.00 | 0.00 | 0.00 | 60 | 1010.6 |
| 20260502130159 | 12 | 284 | 3.2 | 6.4 | 0.00 | 0.00 | 0.00 | 61 | 1010.6 |
| 20260502123628 | 11 | 0 | 4.8 | 14.5 | 0.00 | 0.00 | 0.00 | 62 | 1011.3 |
| 20260502123121 | 11 | 253 | 4.8 | 14.5 | 0.00 | 0.00 | 0.00 | 62 | 1011.3 |
| 20260502122616 | 11 | 287 | 4.8 | 14.5 | 0.00 | 0.00 | 0.00 | 62 | 1011.2 |
| 20260502122110 | 11 | 295 | 4.8 | 14.5 | 0.00 | 0.00 | 0.00 | 62 | 1011.2 |
| 20260502121604 | 11 | 325 | 6.4 | 14.5 | 0.00 | 0.00 | 0.00 | 62 | 1011.3 |
| 20260502121058 | 11 | 341 | 6.4 | 17.7 | 0.00 | 0.00 | 0.00 | 62 | 1011.4 |
| 20260502120812 | 11 | 322 | 6.4 | 17.7 | 0.00 | 0.00 | 0.00 | 61 | 1011.4 |
| 20260502115539 | 11 | 279 | 6.4 | 16.1 | 0.00 | 0.00 | 0.00 | 63 | 1011.4 |
| 20260502115306 | 11 | 287 | 8.0 | 14.5 | 0.00 | 0.00 | 0.00 | 63 | 1011.3 |
| 20260502115022 | 11 | 257 | 8.0 | 19.3 | 0.00 | 0.00 | 0.00 | 63 | 1011.2 |
| 20260502114022 | 11 | 300 | 9.7 | 19.3 | 0.00 | 0.00 | 0.00 | 63 | 1011.1 |
| 20260502113516 | 11 | 261 | 9.7 | 17.7 | 0.00 | 0.00 | 0.00 | 63 | 1011.1 |
| 20260502113017 | 11 | 286 | 8.0 | 17.7 | 0.00 | 0.00 | 0.00 | 63 | 1011.0 |
| 20260502112516 | 11 | 267 | 11.3 | 22.5 | 0.00 | 0.00 | 0.00 | 63 | 1010.9 |
| 20260502112238 | 11 | 269 | 11.3 | 22.5 | 0.00 | 0.00 | 0.00 | 63 | 1010.9 |
| 20260502111516 | 11 | 281 | 11.3 | 20.9 | 0.00 | 0.00 | 0.00 | 63 | 1010.8 |
| 20260502111016 | 11 | 248 | 12.9 | 25.7 | 0.00 | 0.00 | 0.00 | 63 | 1011.0 |
| 20260502110513 | 11 | 242 | 12.9 | 25.7 | 0.00 | 0.00 | 0.00 | 63 | 1010.9 |
| 20260502110013 | 11 | 250 | 11.3 | 19.3 | 0.00 | 0.00 | 0.00 | 63 | 1010.8 |
| 20260502105512 | 11 | 288 | 11.3 | 19.3 | 0.00 | 0.00 | 0.00 | 63 | 1010.8 |
| 20260502105010 | 11 | 216 | 9.7 | 20.9 | 0.00 | 0.00 | 0.00 | 63 | 1010.7 |
| 20260502104511 | 11 | 263 | 11.3 | 24.1 | 0.00 | 0.00 | 0.00 | 63 | 1010.6 |
| 20260502104013 | 11 | 277 | 11.3 | 24.1 | 0.00 | 0.00 | 0.00 | 63 | 1010.7 |
| 20260502103510 | 11 | 250 | 11.3 | 24.1 | 0.00 | 0.00 | 0.00 | 63 | 1010.7 |
| 20260502103011 | 11 | 255 | 12.9 | 25.7 | 0.00 | 0.00 | 0.00 | 63 | 1010.5 |
| 20260502102511 | 11 | 306 | 12.9 | 25.7 | 0.00 | 0.00 | 0.00 | 63 | 1010.4 |
| 20260502102453 | 11 | 306 | 12.9 | 27.4 | 0.00 | 0.00 | 0.00 | 63 | 1010.5 |
| 20260502101736 | 11 | 225 | 12.9 | 27.4 | 0.00 | 0.00 | 0.00 | 64 | 1010.6 |
| 20260502101012 | 11 | 250 | 14.5 | 29.0 | 0.00 | 0.00 | 0.00 | 64 | 1010.5 |
| 20260502100733 | 11 | 261 | 14.5 | 29.0 | 0.00 | 0.00 | 0.00 | 64 | 1010.4 |
| 20260502090900 | 10 | 246 | 11.3 | 27.4 | 0.00 | 0.00 | 0.00 | 62 | 1010.2 |
| 20260502090619 | 10 | 277 | 12.9 | 27.4 | 0.00 | 0.00 | 0.00 | 62 | 1010.4 |
| 20260502071349 | 10 | 259 | 11.3 | 20.9 | 0.00 | 0.00 | 0.00 | 62 | 1010.6 |
| 20260502070848 | 10 | 259 | 9.7 | 20.9 | 0.00 | 0.00 | 0.00 | 62 | 1010.5 |
| 20260502070349 | 10 | 235 | 9.7 | 20.9 | 0.00 | 0.00 | 0.00 | 62 | 1010.5 |
| 20260502065849 | 10 | 229 | 9.7 | 19.3 | 0.00 | 0.00 | 0.00 | 61 | 1010.6 |
| 20260502065348 | 10 | 240 | 11.3 | 19.3 | 0.00 | 0.00 | 0.00 | 61 | 1010.7 |
| 20260502064848 | 10 | 244 | 11.3 | 20.9 | 0.00 | 0.00 | 0.00 | 61 | 1010.7 |
| 20260502064349 | 10 | 254 | 9.7 | 22.5 | 0.00 | 0.00 | 0.00 | 61 | 1010.8 |
| 20260502063850 | 10 | 286 | 8.0 | 22.5 | 0.00 | 0.00 | 0.00 | 61 | 1010.9 |
| 20260502063343 | 10 | 267 | 9.7 | 20.9 | 0.00 | 0.00 | 0.00 | 61 | 1010.9 |
| 20260502062837 | 10 | 244 | 9.7 | 20.9 | 0.00 | 0.00 | 0.00 | 61 | 1010.9 |
| 20260502062331 | 10 | 232 | 8.0 | 17.7 | 0.00 | 0.00 | 0.00 | 61 | 1010.8 |
| 20260502061825 | 10 | 228 | 8.0 | 17.7 | 0.00 | 0.00 | 0.00 | 60 | 1010.7 |
| 20260502061320 | 10 | 258 | 9.7 | 19.3 | 0.00 | 0.00 | 0.00 | 60 | 1010.9 |
| 20260502060813 | 10 | 238 | 6.4 | 19.3 | 0.00 | 0.00 | 0.00 | 60 | 1010.9 |
| 20260502060307 | 11 | 258 | 6.4 | 17.7 | 0.00 | 0.00 | 0.00 | 60 | 1011.0 |
| 20260502055801 | 11 | 268 | 8.0 | 19.3 | 0.00 | 0.00 | 0.00 | 60 | 1011.0 |
| 20260502055300 | 11 | 202 | 8.0 | 19.3 | 0.00 | 0.00 | 0.00 | 60 | 1011.0 |
| 20260502054758 | 11 | 249 | 8.0 | 17.7 | 0.00 | 0.00 | 0.00 | 60 | 1010.9 |
| 20260502054258 | 11 | 232 | 8.0 | 17.7 | 0.00 | 0.00 | 0.00 | 60 | 1010.8 |
| 20260502053800 | 11 | 253 | 9.7 | 16.1 | 0.00 | 0.00 | 0.00 | 59 | 1011.0 |
| 20260502053256 | 11 | 257 | 8.0 | 17.7 | 0.00 | 0.00 | 0.00 | 59 | 1010.9 |
| 20260502052757 | 11 | 261 | 8.0 | 19.3 | 0.00 | 0.00 | 0.00 | 59 | 1011.2 |
| 20260502052517 | 11 | 253 | 6.4 | 19.3 | 0.00 | 0.00 | 0.00 | 59 | 1011.2 |
| 20260502051754 | 11 | 252 | 6.4 | 14.5 | 0.00 | 0.00 | 0.00 | 59 | 1011.2 |
| 20260502051255 | 11 | 218 | 6.4 | 19.3 | 0.00 | 0.00 | 0.00 | 59 | 1011.3 |
| 20260502050755 | 11 | 294 | 8.0 | 19.3 | 0.00 | 0.00 | 0.00 | 59 | 1011.4 |
| 20260502050255 | 11 | 250 | 8.0 | 22.5 | 0.00 | 0.00 | 0.00 | 59 | 1011.3 |
| 20260502045755 | 11 | 261 | 8.0 | 22.5 | 0.00 | 0.00 | 0.00 | 59 | 1011.3 |
| 20260502045253 | 11 | 330 | 9.7 | 20.9 | 0.00 | 0.00 | 0.00 | 58 | 1011.5 |
| 20260502044751 | 11 | 284 | 11.3 | 25.7 | 0.00 | 0.00 | 0.00 | 58 | 1011.6 |
| 20260502044251 | 11 | 309 | 11.3 | 25.7 | 0.00 | 0.00 | 0.00 | 58 | 1011.6 |
| 20260502043750 | 11 | 249 | 9.7 | 24.1 | 0.00 | 0.00 | 0.00 | 58 | 1011.5 |
| 20260502043251 | 11 | 272 | 12.9 | 22.5 | 0.00 | 0.00 | 0.00 | 57 | 1011.4 |
| 20260502043007 | 11 | 269 | 12.9 | 25.7 | 0.00 | 0.00 | 0.00 | 57 | 1011.3 |
| 20260502042244 | 11 | 252 | 12.9 | 25.7 | 0.00 | 0.00 | 0.00 | 57 | 1011.1 |
| 20260502041744 | 11 | 273 | 11.3 | 20.9 | 0.00 | 0.00 | 0.00 | 57 | 1011.2 |
| 20260502041244 | 11 | 263 | 11.3 | 20.9 | 0.00 | 0.00 | 0.00 | 57 | 1011.2 |
| 20260502040744 | 11 | 272 | 9.7 | 22.5 | 0.00 | 0.00 | 0.00 | 57 | 1011.2 |
| 20260502040244 | 11 | 279 | 9.7 | 22.5 | 0.00 | 0.00 | 0.00 | 57 | 1011.3 |
| 20260502035748 | 11 | 260 | 9.7 | 19.3 | 0.00 | 0.00 | 0.00 | 56 | 1011.3 |
| 20260502035243 | 11 | 279 | 6.4 | 19.3 | 0.00 | 0.00 | 0.00 | 56 | 1011.4 |
| 20260502034743 | 11 | 284 | 6.4 | 17.7 | 0.00 | 0.00 | 0.00 | 56 | 1011.4 |
| 20260502034502 | 11 | 315 | 4.8 | 17.7 | 0.00 | 0.00 | 0.00 | 56 | 1011.6 |
| 20260502033742 | 11 | 256 | 4.8 | 16.1 | 0.00 | 0.00 | 0.00 | 56 | 1011.5 |
| 20260502033243 | 11 | 239 | 8.0 | 16.1 | 0.00 | 0.00 | 0.00 | 55 | 1011.6 |
| 20260502032747 | 10 | 225 | 4.8 | 16.1 | 0.00 | 0.00 | 0.00 | 57 | 1011.6 |
| 20260502032742 | 10 | 246 | 8.0 | 16.1 | 0.00 | 0.00 | 0.00 | 56 | 1011.5 |
| 20260502031741 | 10 | 296 | 1.6 | 9.7 | 0.00 | 0.00 | 0.00 | 57 | 1011.7 |
| 20260502031501 | 10 | 342 | 3.2 | 6.4 | 0.00 | 0.00 | 0.00 | 58 | 1011.8 |
| 20260502030738 | 11 | 335 | 3.2 | 6.4 | 0.00 | 0.00 | 0.00 | 58 | 1011.8 |
| 20260502030239 | 11 | 11 | 3.2 | 9.7 | 0.00 | 0.00 | 0.00 | 58 | 1011.7 |
| 20260502025738 | 11 | 355 | 3.2 | 9.7 | 0.00 | 0.00 | 0.00 | 58 | 1011.7 |
| 20260502025719 | 11 | 263 | 4.8 | 12.9 | 0.00 | 0.00 | 0.00 | 57 | 1011.7 |
| 20260502025001 | 11 | 5 | 6.4 | 19.3 | 0.00 | 0.00 | 0.00 | 57 | 1011.7 |
| 20260502024235 | 11 | 330 | 6.4 | 19.3 | 0.00 | 0.00 | 0.00 | 57 | 1011.6 |
| 20260502023958 | 11 | 279 | 4.8 | 14.5 | 0.00 | 0.00 | 0.00 | 57 | 1011.6 |
| 20260502023232 | 11 | 304 | 6.4 | 14.5 | 0.00 | 0.00 | 0.00 | 57 | 1011.6 |
| 20260502022733 | 11 | 306 | 6.4 | 16.1 | 0.00 | 0.00 | 0.00 | 57 | 1011.6 |
| 20260502022230 | 11 | 262 | 8.0 | 19.3 | 0.00 | 0.00 | 0.00 | 57 | 1011.3 |
| 20260502021731 | 11 | 244 | 9.7 | 19.3 | 0.00 | 0.00 | 0.00 | 57 | 1011.3 |
| 20260502021231 | 11 | 246 | 9.7 | 19.3 | 0.00 | 0.00 | 0.00 | 57 | 1011.3 |
| 20260502020731 | 11 | 227 | 8.0 | 19.3 | 0.00 | 0.00 | 0.00 | 57 | 1011.3 |
| 20260502020231 | 11 | 229 | 8.0 | 12.9 | 0.00 | 0.00 | 0.00 | 56 | 1011.2 |
| 20260502015730 | 11 | 254 | 8.0 | 14.5 | 0.00 | 0.00 | 0.00 | 56 | 1011.1 |
| 20260502015500 | 11 | 261 | 9.7 | 17.7 | 0.00 | 0.00 | 0.00 | 56 | 1011.2 |
| 20260502014731 | 11 | 227 | 11.3 | 20.9 | 0.00 | 0.00 | 0.00 | 55 | 1011.2 |
| 20260502014225 | 11 | 249 | 11.3 | 20.9 | 0.00 | 0.00 | 0.00 | 55 | 1011.2 |
| 20260502013719 | 11 | 233 | 11.3 | 20.9 | 0.00 | 0.00 | 0.00 | 56 | 1011.3 |
| 20260502013213 | 11 | 215 | 12.9 | 20.9 | 0.00 | 0.00 | 0.00 | 55 | 1011.3 |
| 20260502012706 | 11 | 259 | 12.9 | 20.9 | 0.00 | 0.00 | 0.00 | 55 | 1011.3 |
| 20260502012426 | 11 | 272 | 11.3 | 20.9 | 0.00 | 0.00 | 0.00 | 55 | 1011.4 |
| 20260502011654 | 11 | 248 | 12.9 | 24.1 | 0.00 | 0.00 | 0.00 | 54 | 1011.4 |
| 20260502011148 | 11 | 248 | 14.5 | 27.4 | 0.00 | 0.00 | 0.00 | 54 | 1011.3 |
| 20260502010643 | 11 | 229 | 16.1 | 30.6 | 0.00 | 0.00 | 0.00 | 54 | 1011.2 |
| 20260502010137 | 11 | 252 | 16.1 | 30.6 | 0.00 | 0.00 | 0.00 | 54 | 1011.3 |
| 20260502005631 | 11 | 271 | 16.1 | 30.6 | 0.00 | 0.00 | 0.00 | 54 | 1011.2 |
| 20260502005125 | 11 | 271 | 16.1 | 30.6 | 0.00 | 0.00 | 0.00 | 54 | 1011.0 |
| 20260502004618 | 11 | 277 | 17.7 | 32.2 | 0.00 | 0.00 | 0.00 | 53 | 1010.9 |
| 20260502004113 | 11 | 249 | 17.7 | 33.8 | 0.00 | 0.00 | 0.00 | 54 | 1011.0 |
| 20260502003608 | 11 | 246 | 17.7 | 33.8 | 0.00 | 0.00 | 0.00 | 54 | 1010.8 |
| 20260502003101 | 11 | 284 | 16.1 | 32.2 | 0.00 | 0.00 | 0.00 | 54 | 1010.7 |
| 20260502002555 | 11 | 262 | 14.5 | 32.2 | 0.00 | 0.00 | 0.00 | 54 | 1010.6 |
| 20260502002049 | 11 | 243 | 16.1 | 27.4 | 0.00 | 0.00 | 0.00 | 54 | 1010.5 |
| 20260502001544 | 11 | 265 | 17.7 | 29.0 | 0.00 | 0.00 | 0.00 | 54 | 1010.5 |
| 20260502001037 | 12 | 286 | 16.1 | 29.0 | 0.00 | 0.00 | 0.00 | 54 | 1010.4 |
| 20260502000530 | 12 | 263 | 14.5 | 30.6 | 0.00 | 0.00 | 0.00 | 53 | 1010.4 |
| 20260502000025 | 12 | 253 | 14.5 | 30.6 | 0.00 | 0.00 | 0.00 | 53 | 1010.2 |
| 20260501235519 | 12 | 265 | 12.9 | 30.6 | 0.00 | 0.00 | 0.00 | 53 | 1010.2 |
| 20260501235013 | 12 | 239 | 12.9 | 27.4 | 0.00 | 0.00 | 0.00 | 52 | 1010.1 |
| 20260501234507 | 12 | 238 | 14.5 | 27.4 | 0.00 | 0.00 | 0.00 | 51 | 1009.9 |
| 20260501234004 | 12 | 280 | 14.5 | 30.6 | 0.00 | 0.00 | 0.00 | 50 | 1009.9 |
| 20260501233813 | 12 | 246 | 14.5 | 30.6 | 0.00 | 0.00 | 0.00 | 50 | 1009.7 |
| 20260501233725 | 12 | 259 | 14.5 | 29.0 | 0.00 | 0.00 | 0.00 | 50 | 1009.8 |
| 20260501232504 | 12 | 218 | 14.5 | 29.0 | 0.00 | 0.00 | 0.00 | 50 | 1009.8 |
| 20260501232231 | 12 | 213 | 16.1 | 29.0 | 0.00 | 0.00 | 0.00 | 49 | 1009.7 |
| 20260501231728 | 13 | 256 | 14.5 | 25.7 | 0.00 | 0.00 | 0.00 | 50 | 1009.7 |
| 20260501231005 | 13 | 242 | 14.5 | 30.6 | 0.00 | 0.00 | 0.00 | 50 | 1009.8 |
| 20260501230503 | 13 | 253 | 16.1 | 30.6 | 0.00 | 0.00 | 0.00 | 48 | 1009.7 |
| 20260501230228 | 13 | 271 | 17.7 | 32.2 | 0.00 | 0.00 | 0.00 | 49 | 1009.7 |
| 20260501225504 | 13 | 259 | 17.7 | 32.2 | 0.00 | 0.00 | 0.00 | 47 | 1009.5 |
| 20260501225004 | 13 | 248 | 16.1 | 27.4 | 0.00 | 0.00 | 0.00 | 47 | 1009.5 |
| 20260501224504 | 14 | 252 | 16.1 | 30.6 | 0.00 | 0.00 | 0.00 | 43 | 1009.3 |
| 20260501224004 | 14 | 255 | 16.1 | 30.6 | 0.00 | 0.00 | 0.00 | 43 | 1009.3 |
| 20260501223504 | 14 | 254 | 14.5 | 29.0 | 0.00 | 0.00 | 0.00 | 43 | 1009.3 |
| 20260501223003 | 14 | 280 | 12.9 | 29.0 | 0.00 | 0.00 | 0.00 | 44 | 1009.2 |
| 20260501222723 | 14 | 262 | 14.5 | 25.7 | 0.00 | 0.00 | 0.00 | 44 | 1009.2 |
| 20260501222005 | 15 | 234 | 16.1 | 25.7 | 0.00 | 0.00 | 0.00 | 44 | 1009.3 |
| 20260501221458 | 15 | 247 | 14.5 | 25.7 | 0.00 | 0.00 | 0.00 | 42 | 1009.3 |
| 20260501220954 | 15 | 259 | 11.3 | 25.7 | 0.00 | 0.00 | 0.00 | 41 | 1009.2 |
| 20260501220714 | 15 | 252 | 12.9 | 22.5 | 0.00 | 0.00 | 0.00 | 42 | 1009.2 |
| 20260501220437 | 15 | 265 | 12.9 | 24.1 | 0.00 | 0.00 | 0.00 | 40 | 1009.2 |
| 20260501215454 | 15 | 294 | 14.5 | 24.1 | 0.00 | 0.00 | 0.00 | 42 | 1009.2 |